Latest Weather Observations for Lord Howe Island Windy Point

IDN60801

Issued at 11:32 am EST Tuesday 1 September 2015 (issued every 30 minutes, with the page automatically refreshed every 10 minutes)

About weather observations | Map of weather stations | Latest weather observations for NSW | Other Formats
Station Details ID: 200715 Name: LORD HOWE ISLAND WINDY POINT Lat: -31.54 Lon: 159.07 Height: 4.0 m
Data from the previous 72 hours. | See also: Recent months for locations in New South Wales
Date/Time
EST
Temp
°C
App
Temp
°C
Dew
Point
Rel
Hum
%
Delta-T
°C
Wind Press
QNH
hPa
Press
MSL
hPa
Rain
since 9 am
mm
Dir
 
Spd
km/h
Gust
km/h
Spd
kts
Gust
kts
01/11:30am - - - - - WSW 33 39 18 21 - - -
01/11:00am - - - - - WSW 33 41 18 22 - - -
01/10:30am - - - - - WSW 33 41 18 22 - - -
01/10:00am - - - - - WSW 32 39 17 21 - - -
01/09:30am - - - - - SW 32 37 17 20 - - -
01/09:00am - - - - - WSW 30 35 16 19 - - -
01/08:30am - - - - - WSW 35 43 19 23 - - -
01/08:00am - - - - - WSW 32 44 17 24 - - -
01/07:30am - - - - - WSW 32 39 17 21 - - -
01/07:00am - - - - - WSW 33 41 18 22 - - -
01/06:30am - - - - - WSW 33 41 18 22 - - -
01/06:00am - - - - - WSW 35 39 19 21 - - -
01/05:30am - - - - - WSW 37 52 20 28 - - -
01/05:23am - - - - - WSW 32 52 17 28 - - -
01/05:00am - - - - - WSW 33 39 18 21 - - -
01/04:30am - - - - - WSW 33 41 18 22 - - -
01/04:00am - - - - - W 32 41 17 22 - - -
01/03:30am - - - - - W 28 32 15 17 - - -
01/03:04am - - - - - WSW 43 61 23 33 - - -
01/03:00am - - - - - WSW 43 61 23 33 - - -
01/02:53am - - - - - WSW 30 50 16 27 - - -
01/02:30am - - - - - W 30 35 16 19 - - -
01/02:00am - - - - - WSW 30 35 16 19 - - -
01/01:30am - - - - - WSW 30 35 16 19 - - -
01/01:00am - - - - - WSW 32 35 17 19 - - -
01/12:30am - - - - - WSW 32 37 17 20 - - -
01/12:00am - - - - - WSW 28 32 15 17 - - -
 
Date/Time
EST
Temp
°C
App
Temp
°C
Dew
Point
Rel
Hum
%
Delta-T
°C
Wind Press
QNH
hPa
Press
MSL
hPa
Rain
since 9 am
mm
Dir
 
Spd
km/h
Gust
km/h
Spd
kts
Gust
kts
31/11:30pm - - - - - WSW 28 32 15 17 - - -
31/11:00pm - - - - - WSW 32 37 17 20 - - -
31/10:30pm - - - - - W 32 35 17 19 - - -
31/10:00pm - - - - - WSW 30 35 16 19 - - -
31/09:30pm - - - - - WSW 30 35 16 19 - - -
31/09:00pm - - - - - WSW 28 35 15 19 - - -
31/08:30pm - - - - - WSW 30 35 16 19 - - -
31/08:00pm - - - - - WSW 30 37 16 20 - - -
31/07:30pm - - - - - SW 30 35 16 19 - - -
31/07:00pm - - - - - WSW 30 37 16 20 - - -
31/06:30pm - - - - - SW 33 43 18 23 - - -
31/06:00pm - - - - - WSW 32 39 17 21 - - -
31/05:30pm - - - - - SW 30 39 16 21 - - -
31/05:00pm - - - - - WSW 32 41 17 22 - - -
31/04:30pm - - - - - SW 32 39 17 21 - - -
31/04:00pm - - - - - SW 32 37 17 20 - - -
31/03:30pm - - - - - SW 26 32 14 17 - - -
31/03:00pm - - - - - WSW 32 37 17 20 - - -
31/02:30pm - - - - - SW 32 37 17 20 - - -
31/02:00pm - - - - - WSW 24 33 13 18 - - -
31/01:30pm - - - - - WSW 28 35 15 19 - - -
31/01:00pm - - - - - WSW 26 30 14 16 - - -
31/12:30pm - - - - - WSW 26 32 14 17 - - -
31/12:00pm - - - - - SW 26 32 14 17 - - -
31/11:30am - - - - - SW 28 32 15 17 - - -
31/11:00am - - - - - SW 28 33 15 18 - - -
31/10:30am - - - - - WSW 22 26 12 14 - - -
31/10:00am - - - - - WSW 22 28 12 15 - - -
31/09:30am - - - - - WSW 28 33 15 18 - - -
31/09:00am - - - - - SW 24 30 13 16 - - -
31/08:30am - - - - - SSW 22 26 12 14 - - -
31/08:00am - - - - - WSW 26 32 14 17 - - -
31/07:30am - - - - - SSW 24 30 13 16 - - -
31/07:00am - - - - - SW 30 33 16 18 - - -
31/06:30am - - - - - WSW 26 35 14 19 - - -
31/06:00am - - - - - SW 32 39 17 21 - - -
31/05:30am - - - - - WSW 33 39 18 21 - - -
31/05:00am - - - - - SW 32 39 17 21 - - -
31/04:30am - - - - - WSW 33 48 18 26 - - -
31/04:24am - - - - - WSW 28 48 15 26 - - -
31/04:00am - - - - - WSW 30 35 16 19 - - -
31/03:30am - - - - - W 32 35 17 19 - - -
31/03:00am - - - - - W 28 33 15 18 - - -
31/02:30am - - - - - WSW 28 33 15 18 - - -
31/02:00am - - - - - WSW 28 33 15 18 - - -
31/01:30am - - - - - WSW 24 33 13 18 - - -
31/01:00am - - - - - WSW 24 30 13 16 - - -
31/12:30am - - - - - WSW 22 28 12 15 - - -
31/12:00am - - - - - SW 22 28 12 15 - - -
 
Date/Time
EST
Temp
°C
App
Temp
°C
Dew
Point
Rel
Hum
%
Delta-T
°C
Wind Press
QNH
hPa
Press
MSL
hPa
Rain
since 9 am
mm
Dir
 
Spd
km/h
Gust
km/h
Spd
kts
Gust
kts
30/11:30pm - - - - - SW 20 26 11 14 - - -
30/11:00pm - - - - - SW 22 26 12 14 - - -
30/10:30pm - - - - - SW 20 26 11 14 - - -
30/10:00pm - - - - - SW 20 24 11 13 - - -
30/09:30pm - - - - - S 15 26 8 14 - - -
30/09:00pm - - - - - E 6 9 3 5 - - -
30/08:30pm - - - - - E 2 6 1 3 - - -
30/08:00pm - - - - - CALM 0 2 0 1 - - -
30/07:30pm - - - - - NE 4 7 2 4 - - -
30/07:00pm - - - - - N 4 6 2 3 - - -
30/06:30pm - - - - - ENE 2 7 1 4 - - -
30/06:00pm - - - - - NE 11 15 6 8 - - -
30/05:30pm - - - - - S 9 15 5 8 - - -
30/05:00pm - - - - - SSW 19 24 10 13 - - -
30/04:30pm - - - - - SSW 19 26 10 14 - - -
30/04:00pm - - - - - CALM 0 0 0 0 - - -
30/03:30pm - - - - - E 13 17 7 9 - - -
30/03:00pm - - - - - ESE 9 13 5 7 - - -
30/02:30pm - - - - - ESE 9 17 5 9 - - -
30/02:00pm - - - - - SSW 20 24 11 13 - - -
30/01:30pm - - - - - SSW 7 11 4 6 - - -
30/01:00pm - - - - - WSW 6 15 3 8 - - -
30/12:30pm - - - - - E 13 17 7 9 - - -
30/12:00pm - - - - - SSW 11 15 6 8 - - -
30/11:30am - - - - - WSW 17 30 9 16 - - -
30/11:00am - - - - - SSW 30 39 16 21 - - -
30/10:56am - - - - - SSW 24 39 13 21 - - -
30/10:30am - - - - - W 11 15 6 8 - - -
30/10:00am - - - - - W 11 15 6 8 - - -
30/09:30am - - - - - W 13 15 7 8 - - -
30/09:00am - - - - - WNW 15 19 8 10 - - -
30/08:30am - - - - - W 7 9 4 5 - - -
30/08:00am - - - - - W 9 13 5 7 - - -
30/07:30am - - - - - NW 11 15 6 8 - - -
30/07:00am - - - - - NNW 2 7 1 4 - - -
30/06:30am - - - - - NNW 2 7 1 4 - - -
30/06:00am - - - - - CALM 0 6 0 3 - - -
30/05:30am - - - - - NNW 2 6 1 3 - - -
30/05:00am - - - - - N 2 7 1 4 - - -
30/04:30am - - - - - CALM 0 0 0 0 - - -
30/04:00am - - - - - N 6 7 3 4 - - -
30/03:30am - - - - - CALM 0 0 0 0 - - -
30/03:00am - - - - - CALM 0 0 0 0 - - -
30/02:30am - - - - - CALM 0 0 0 0 - - -
30/02:00am - - - - - CALM 0 0 0 0 - - -
30/01:30am - - - - - CALM 0 0 0 0 - - -
30/01:00am - - - - - CALM 0 0 0 0 - - -
30/12:30am - - - - - NNE 7 13 4 7 - - -
30/12:00am - - - - - NNE 6 9 3 5 - - -
 
Date/Time
EST
Temp
°C
App
Temp
°C
Dew
Point
Rel
Hum
%
Delta-T
°C
Wind Press
QNH
hPa
Press
MSL
hPa
Rain
since 9 am
mm
Dir
 
Spd
km/h
Gust
km/h
Spd
kts
Gust
kts
29/11:30pm - - - - - NNE 7 9 4 5 - - -
29/11:00pm - - - - - NNE 7 9 4 5 - - -
29/10:30pm - - - - - NNE 7 9 4 5 - - -
29/10:00pm - - - - - NNE 9 13 5 7 - - -
29/09:30pm - - - - - NE 7 13 4 7 - - -
29/09:00pm - - - - - NE 7 9 4 5 - - -
29/08:30pm - - - - - NE 7 13 4 7 - - -
29/08:00pm - - - - - NE 9 17 5 9 - - -
29/07:30pm - - - - - NE 7 15 4 8 - - -
29/07:00pm - - - - - NE 7 11 4 6 - - -
29/06:30pm - - - - - ENE 9 17 5 9 - - -
29/06:00pm - - - - - ENE 9 11 5 6 - - -
29/05:30pm - - - - - NE 11 15 6 8 - - -
29/05:00pm - - - - - ENE 11 15 6 8 - - -
29/04:30pm - - - - - ENE 9 17 5 9 - - -
29/04:00pm - - - - - ESE 11 17 6 9 - - -
29/03:30pm - - - - - ESE 13 19 7 10 - - -
29/03:00pm - - - - - E 13 15 7 8 - - -
29/02:30pm - - - - - E 13 17 7 9 - - -
29/02:00pm - - - - - E 15 20 8 11 - - -
29/01:30pm - - - - - ESE 13 20 7 11 - - -
29/01:00pm - - - - - SW 9 15 5 8 - - -
29/12:30pm - - - - - ESE 11 20 6 11 - - -
29/12:00pm - - - - - E 13 17 7 9 - - -

Other Formats:

Comma delimited format used in spreadsheet applications
http://www.bom.gov.au/fwo/IDN60801/IDN60801.95995.axf

JavaScript Object Notation format (JSON) in row-major order
http://www.bom.gov.au/fwo/IDN60801/IDN60801.95995.json